Time;durP1;ratioP1;P1;durP2;ratioP2;P2;SDS_P1;SDS_P2;PMS_P1;PMS_P2;Temp;Humidity;BMP_temperature;BMP_pressure;BME280_temperature;BME280_humidity;BME280_pressure;Samples;Min_cycle;Max_cycle;Signal;HPM_P1;HPM_P2
2022/08/21 00:01:26;;;;;;;17.30;13.08;;;;;;;20.67;100.00;98251.26;2185312;80;21005;-87
2022/08/21 00:04:27;;;;;;;18.67;13.10;;;;;;;20.60;100.00;98251.47;2185469;81;21575;-87
2022/08/21 00:07:27;;;;;;;17.80;12.15;;;;;;;20.63;100.00;98258.92;2185679;81;20990;-85
2022/08/21 00:10:28;;;;;;;17.62;11.65;;;;;;;20.65;100.00;98256.81;2185623;81;21112;-87
2022/08/21 00:13:29;;;;;;;18.52;12.23;;;;;;;20.64;100.00;98251.22;2183915;81;21017;-87
2022/08/21 00:16:30;;;;;;;18.15;12.63;;;;;;;20.62;100.00;98254.67;2183586;81;20965;-87
2022/08/21 00:19:31;;;;;;;16.60;12.95;;;;;;;20.60;100.00;98262.11;2183852;81;21027;-86
2022/08/21 00:22:32;;;;;;;16.75;13.03;;;;;;;20.55;100.00;98259.92;2184526;81;20985;-87
2022/08/21 00:25:32;;;;;;;16.75;12.07;;;;;;;20.51;100.00;98261.50;2185949;81;20973;-87
2022/08/21 00:28:33;;;;;;;22.30;13.40;;;;;;;20.52;100.00;98257.79;2185560;81;20986;-87
2022/08/21 00:31:34;;;;;;;15.83;12.30;;;;;;;20.51;100.00;98255.66;2185623;81;20974;-86
2022/08/21 00:34:35;;;;;;;18.25;13.83;;;;;;;20.55;100.00;98253.28;2185562;81;21091;-86
2022/08/21 00:37:35;;;;;;;15.98;12.50;;;;;;;20.56;100.00;98246.38;2186016;81;21445;-87
2022/08/21 00:40:36;;;;;;;18.17;13.43;;;;;;;20.54;100.00;98247.69;2186051;81;21044;-87
2022/08/21 00:43:37;;;;;;;19.82;14.10;;;;;;;20.49;100.00;98245.01;2185337;81;21037;-87
2022/08/21 00:46:38;;;;;;;17.85;14.50;;;;;;;20.49;100.00;98237.03;2185644;81;21497;-88
2022/08/21 00:49:38;;;;;;;17.10;13.13;;;;;;;20.48;100.00;98242.05;2185446;81;21495;-87
2022/08/21 00:52:39;;;;;;;14.30;12.82;;;;;;;20.36;100.00;98240.87;2185789;81;21520;-87
2022/08/21 00:55:40;;;;;;;22.80;13.28;;;;;;;20.25;100.00;98240.52;2185742;81;21044;-87
2022/08/21 00:58:41;;;;;;;17.62;14.15;;;;;;;20.18;100.00;98238.06;2185814;81;21021;-87
2022/08/21 01:01:42;;;;;;;16.50;13.50;;;;;;;20.12;100.00;98237.23;2185902;81;20996;-87
2022/08/21 01:04:42;;;;;;;20.17;14.23;;;;;;;20.07;100.00;98233.20;2185407;81;21043;-87
2022/08/21 01:07:44;;;;;;;22.73;14.58;;;;;;;20.03;100.00;98232.64;2185805;80;20985;-86
2022/08/21 01:10:45;;;;;;;20.02;15.88;;;;;;;20.02;100.00;98241.11;2185888;81;20997;-87
2022/08/21 01:13:46;;;;;;;19.60;15.55;;;;;;;20.07;100.00;98233.72;2185766;80;20953;-86
2022/08/21 01:16:47;;;;;;;15.28;13.43;;;;;;;20.10;100.00;98232.68;2185500;81;21014;-88
2022/08/21 01:19:47;;;;;;;14.93;13.28;;;;;;;20.12;100.00;98229.27;2185474;81;21504;-87
2022/08/21 01:22:48;;;;;;;18.10;13.85;;;;;;;20.11;100.00;98219.66;2186015;81;21081;-86
2022/08/21 01:25:49;;;;;;;15.75;13.43;;;;;;;20.16;100.00;98220.25;2185626;81;21520;-87
2022/08/21 01:28:50;;;;;;;19.95;13.88;;;;;;;20.20;100.00;98221.86;2185545;81;20986;-87
2022/08/21 01:31:50;;;;;;;19.23;14.68;;;;;;;20.22;100.00;98221.11;2185967;81;21601;-88
2022/08/21 01:34:51;;;;;;;20.55;14.98;;;;;;;20.23;100.00;98220.05;2185942;81;20995;-87
2022/08/21 01:37:52;;;;;;;16.42;12.07;;;;;;;20.17;100.00;98217.86;2186081;81;20958;-86
2022/08/21 01:40:53;;;;;;;15.48;12.20;;;;;;;20.04;100.00;98217.77;2186355;81;20973;-85
2022/08/21 01:43:53;;;;;;;18.02;12.75;;;;;;;19.91;100.00;98213.38;2185904;81;20994;-87
2022/08/21 01:46:55;;;;;;;18.52;14.45;;;;;;;19.74;100.00;98212.95;2185760;81;20958;-87
2022/08/21 01:49:55;;;;;;;17.80;13.65;;;;;;;19.60;100.00;98206.45;2186125;81;21006;-87
2022/08/21 01:52:56;;;;;;;16.52;12.05;;;;;;;19.51;100.00;98200.75;2185927;81;21054;-87
2022/08/21 01:55:57;;;;;;;14.50;11.48;;;;;;;19.46;100.00;98192.71;2185811;81;21018;-87
2022/08/21 01:58:57;;;;;;;13.13;11.80;;;;;;;19.44;100.00;98188.19;2185779;81;20958;-87
2022/08/21 02:01:58;;;;;;;15.50;13.32;;;;;;;19.41;100.00;98184.71;2186555;81;21085;-87
2022/08/21 02:04:59;;;;;;;15.50;12.03;;;;;;;19.42;100.00;98183.66;2186088;81;20990;-86
2022/08/21 02:08:00;;;;;;;16.87;12.45;;;;;;;19.48;100.00;98179.22;2186033;81;21078;-86
2022/08/21 02:11:01;;;;;;;15.20;12.03;;;;;;;19.54;100.00;98176.34;2185967;81;20959;-87
2022/08/21 02:14:02;;;;;;;15.08;11.70;;;;;;;19.60;100.00;98171.40;2185792;81;21521;-87
2022/08/21 02:17:03;;;;;;;19.23;13.15;;;;;;;19.68;100.00;98171.48;2185973;81;21010;-87
2022/08/21 02:20:04;;;;;;;14.78;12.47;;;;;;;19.71;100.00;98168.30;2185714;81;20935;-86
2022/08/21 02:23:05;;;;;;;13.28;11.88;;;;;;;19.75;100.00;98168.09;2186095;81;21046;-87
2022/08/21 02:26:06;;;;;;;17.12;12.30;;;;;;;19.78;100.00;98166.25;2185799;81;20978;-88
2022/08/21 02:29:07;;;;;;;13.10;11.73;;;;;;;19.83;100.00;98168.14;2185916;81;21113;-88
2022/08/21 02:32:07;;;;;;;16.05;12.10;;;;;;;19.84;100.00;98157.29;2186052;81;20966;-86
2022/08/21 02:35:09;;;;;;;14.83;11.28;;;;;;;19.80;100.00;98160.69;2180777;81;21032;-86
2022/08/21 02:38:09;;;;;;;14.60;11.88;;;;;;;19.77;100.00;98158.55;2185854;81;20985;-86
2022/08/21 02:41:10;;;;;;;15.88;11.90;;;;;;;19.74;100.00;98155.84;2154184;81;21034;-87
2022/08/21 02:44:11;;;;;;;13.60;10.50;;;;;;;19.72;100.00;98154.50;2185777;81;21532;-87
2022/08/21 02:47:12;;;;;;;13.88;11.55;;;;;;;19.70;100.00;98155.28;2185832;81;20994;-87
2022/08/21 02:50:12;;;;;;;10.68;9.00;;;;;;;19.65;100.00;98153.90;2185873;81;21013;-87
2022/08/21 02:53:16;;;;;;;13.15;10.32;;;;;;;19.51;100.00;98160.12;2185596;81;20969;-86
2022/08/21 02:56:16;;;;;;;19.82;12.70;;;;;;;19.41;100.00;98152.86;2185788;80;21005;-87
2022/08/21 02:59:16;;;;;;;24.25;14.30;;;;;;;19.33;100.00;98151.44;2185732;81;21548;-88
2022/08/21 03:02:17;;;;;;;17.23;12.05;;;;;;;19.28;100.00;98151.91;2185472;81;21642;-88
2022/08/21 03:05:18;;;;;;;25.85;16.25;;;;;;;19.18;100.00;98160.55;2185681;81;21058;-87
2022/08/21 03:08:19;;;;;;;37.33;21.82;;;;;;;19.03;100.00;98159.87;2185600;81;21539;-87
2022/08/21 03:11:20;;;;;;;26.97;18.23;;;;;;;18.94;100.00;98160.55;2185642;81;20938;-87
2022/08/21 03:14:21;;;;;;;27.40;17.37;;;;;;;18.89;100.00;98165.78;2185755;81;21454;-87
2022/08/21 03:17:22;;;;;;;24.37;17.10;;;;;;;18.84;100.00;98164.41;2185688;81;21490;-86
2022/08/21 03:20:23;;;;;;;22.13;19.77;;;;;;;18.79;100.00;98167.78;2185904;81;21009;-86
2022/08/21 03:23:24;;;;;;;19.32;16.25;;;;;;;18.76;100.00;98162.97;2185985;81;20978;-86
2022/08/21 03:26:24;;;;;;;14.60;11.73;;;;;;;18.72;100.00;98157.34;2185785;81;21005;-87
2022/08/21 03:29:25;;;;;;;18.07;11.97;;;;;;;18.66;100.00;98155.69;2186022;81;21438;-87
2022/08/21 03:32:26;;;;;;;21.42;12.03;;;;;;;18.69;100.00;98164.47;2186100;81;22190;-87
2022/08/21 03:35:27;;;;;;;13.83;11.20;;;;;;;18.67;100.00;98170.55;2186217;81;21049;-86
2022/08/21 03:38:27;;;;;;;14.40;11.95;;;;;;;18.66;100.00;98174.25;2185600;81;21026;-86
2022/08/21 03:41:28;;;;;;;13.48;11.55;;;;;;;18.68;100.00;98176.66;2186291;81;21017;-87
2022/08/21 03:44:30;;;;;;;12.50;10.65;;;;;;;18.78;100.00;98185.27;2185756;81;20983;-87
2022/08/21 03:47:31;;;;;;;14.75;11.28;;;;;;;18.84;100.00;98194.37;2185587;81;21067;-87
2022/08/21 03:50:31;;;;;;;16.07;11.73;;;;;;;18.86;100.00;98200.23;2185874;81;20962;-87
2022/08/21 03:53:32;;;;;;;19.17;11.10;;;;;;;18.88;100.00;98206.09;2185620;81;21030;-87
2022/08/21 03:56:33;;;;;;;12.05;10.85;;;;;;;18.89;100.00;98211.67;2185818;81;20975;-87
2022/08/21 03:59:34;;;;;;;12.23;10.65;;;;;;;18.86;100.00;98214.02;2185896;81;21018;-87
2022/08/21 04:02:35;;;;;;;11.97;10.82;;;;;;;18.89;100.00;98216.97;2185662;81;20997;-86
2022/08/21 04:05:37;;;;;;;14.30;10.93;;;;;;;18.95;100.00;98221.31;2185863;81;20974;-86
2022/08/21 04:08:38;;;;;;;17.05;10.85;;;;;;;18.96;100.00;98217.61;2185596;81;21018;-86
2022/08/21 04:11:38;;;;;;;13.58;11.38;;;;;;;19.00;100.00;98221.89;2185747;81;21041;-87
2022/08/21 04:14:41;;;;;;;11.48;10.30;;;;;;;19.08;100.00;98222.79;2185340;81;20998;-86
2022/08/21 04:17:42;;;;;;;12.65;11.35;;;;;;;19.10;100.00;98226.52;2185908;81;20970;-87
2022/08/21 04:20:42;;;;;;;14.70;11.08;;;;;;;19.17;100.00;98226.63;2186057;81;21013;-87
2022/08/21 04:23:43;;;;;;;15.08;11.40;;;;;;;19.27;100.00;98217.98;2185847;81;20981;-87
2022/08/21 04:26:44;;;;;;;16.70;14.65;;;;;;;19.36;100.00;98214.36;2185771;81;20998;-87
2022/08/21 04:29:45;;;;;;;17.27;14.45;;;;;;;19.45;100.00;98215.53;2185686;81;21443;-86
2022/08/21 04:32:45;;;;;;;20.90;17.05;;;;;;;19.57;100.00;98223.69;2185704;81;20951;-87
2022/08/21 04:35:46;;;;;;;17.80;15.63;;;;;;;19.57;100.00;98223.69;2185718;81;21006;-87
2022/08/21 04:38:47;;;;;;;16.20;14.47;;;;;;;19.64;100.00;98227.98;2185431;81;21084;-87
2022/08/21 04:41:49;;;;;;;19.55;13.72;;;;;;;19.69;100.00;98220.88;2185800;80;20990;-87
2022/08/21 04:44:49;;;;;;;17.98;15.10;;;;;;;19.77;100.00;98227.60;2185704;81;21489;-87
2022/08/21 04:47:50;;;;;;;17.45;14.65;;;;;;;19.86;100.00;98224.77;2185888;81;21077;-86
2022/08/21 04:50:51;;;;;;;17.35;14.53;;;;;;;19.92;100.00;98223.75;2185578;81;21057;-87
2022/08/21 04:53:51;;;;;;;17.50;15.20;;;;;;;19.99;100.00;98220.36;2185509;81;20970;-87
2022/08/21 04:56:52;;;;;;;13.95;12.45;;;;;;;20.11;100.00;98216.20;2185778;81;21032;-86
2022/08/21 04:59:53;;;;;;;15.23;13.32;;;;;;;20.07;100.00;98213.80;2185622;81;21081;-87
2022/08/21 05:02:56;;;;;;;15.80;14.13;;;;;;;19.93;100.00;98217.91;2185436;81;21005;-86
2022/08/21 05:05:56;;;;;;;17.45;15.30;;;;;;;19.85;100.00;98220.52;2185605;81;21049;-87
2022/08/21 05:08:57;;;;;;;17.42;14.20;;;;;;;20.00;100.00;98217.98;2185430;81;21557;-87
2022/08/21 05:11:58;;;;;;;14.40;13.03;;;;;;;20.17;100.00;98217.86;2185397;81;20978;-86
2022/08/21 05:14:58;;;;;;;20.20;18.10;;;;;;;20.23;100.00;98221.38;2185447;81;21078;-86
2022/08/21 05:17:59;;;;;;;16.25;13.43;;;;;;;20.22;100.00;98221.91;2185731;81;21493;-87
2022/08/21 05:21:00;;;;;;;18.67;16.12;;;;;;;20.23;100.00;98221.38;2185825;81;21461;-87
2022/08/21 05:24:01;;;;;;;17.92;15.13;;;;;;;20.33;100.00;98218.27;2185888;81;20985;-87
2022/08/21 05:27:03;;;;;;;19.00;16.45;;;;;;;20.42;100.00;98218.59;2185907;81;20994;-86
2022/08/21 05:30:04;;;;;;;16.20;14.38;;;;;;;20.50;100.00;98217.36;2185939;81;20982;-86
2022/08/21 05:33:05;;;;;;;19.15;17.25;;;;;;;20.65;100.00;98217.44;2185815;81;21110;-86
2022/08/21 05:36:06;;;;;;;13.48;11.05;;;;;;;20.65;100.00;98218.77;2185239;81;20947;-86
2022/08/21 05:39:07;;;;;;;12.85;10.60;;;;;;;20.74;100.00;98222.02;2185563;81;21022;-86
2022/08/21 05:42:09;;;;;;;10.28;9.33;;;;;;;20.84;100.00;98221.28;2185174;81;21068;-85
2022/08/21 05:45:10;;;;;;;12.93;10.68;;;;;;;20.99;100.00;98224.03;2185504;81;21101;-85
2022/08/21 05:48:14;;;;;;;12.28;10.30;;;;;;;21.07;100.00;98223.27;2185316;81;21045;-85
2022/08/21 05:51:14;;;;;;;12.73;11.15;;;;;;;21.23;100.00;98222.29;2185699;81;21072;-86
2022/08/21 05:54:15;;;;;;;10.90;9.90;;;;;;;21.54;100.00;98229.34;2185493;81;21032;-86
2022/08/21 05:57:18;;;;;;;10.93;9.80;;;;;;;21.78;100.00;98228.34;2153825;81;21039;-86
2022/08/21 06:00:19;;;;;;;10.90;9.78;;;;;;;22.01;100.00;98232.90;2185235;80;21036;-86
2022/08/21 06:03:20;;;;;;;10.18;9.18;;;;;;;22.21;100.00;98226.80;2185146;81;21492;-86
2022/08/21 06:06:20;;;;;;;10.70;9.50;;;;;;;22.49;100.00;98234.27;2185746;81;21016;-87
2022/08/21 06:09:21;;;;;;;10.88;8.43;;;;;;;22.89;100.00;98225.97;2185075;81;20949;-88
2022/08/21 06:12:22;;;;;;;11.05;8.15;;;;;;;22.89;100.00;98225.97;2183559;81;20969;-88
2022/08/21 06:15:23;;;;;;;7.92;7.28;;;;;;;23.04;100.00;98235.25;2184331;81;21153;-87
2022/08/21 06:18:26;;;;;;;7.10;6.50;;;;;;;23.23;100.00;98240.83;2185491;81;21441;-88
2022/08/21 06:21:26;;;;;;;6.80;6.30;;;;;;;23.35;100.00;98227.16;2185065;80;21061;-87
2022/08/21 06:24:27;;;;;;;9.40;7.22;;;;;;;23.55;100.00;98229.72;2185607;81;21551;-88
2022/08/21 06:27:28;;;;;;;7.90;6.47;;;;;;;23.72;100.00;98231.53;2185502;81;20993;-86
2022/08/21 06:30:28;;;;;;;6.75;6.15;;;;;;;23.81;100.00;98224.52;2185214;81;21094;-89
2022/08/21 06:33:34;;;;;;;6.67;5.95;;;;;;;23.99;100.00;98233.77;2153641;81;21005;-88
2022/08/21 06:36:35;;;;;;;6.85;6.22;;;;;;;24.12;100.00;98230.45;2184876;81;21005;-89
2022/08/21 06:39:35;;;;;;;6.62;6.12;;;;;;;24.16;100.00;98225.90;2185845;81;21485;-88
2022/08/21 06:42:36;;;;;;;7.35;6.25;;;;;;;24.23;100.00;98237.05;2185916;81;21407;-86
2022/08/21 06:45:37;;;;;;;11.97;6.20;;;;;;;24.35;100.00;98240.22;2185608;81;21091;-88
2022/08/21 06:48:38;;;;;;;6.80;6.30;;;;;;;24.37;100.00;98242.06;2185509;81;21484;-88
2022/08/21 06:51:38;;;;;;;6.72;6.12;;;;;;;24.39;100.00;98244.71;2185418;81;21016;-87
2022/08/21 06:54:39;;;;;;;7.17;6.37;;;;;;;24.45;100.00;98248.16;2185334;81;21441;-88
2022/08/21 06:57:40;;;;;;;6.92;6.33;;;;;;;24.53;100.00;98250.77;2185658;81;21009;-88
2022/08/21 07:00:41;;;;;;;7.10;6.47;;;;;;;24.62;100.00;98244.52;2185450;81;21006;-88
2022/08/21 07:03:42;;;;;;;7.35;6.65;;;;;;;24.72;100.00;98246.84;2185757;81;21465;-89
2022/08/21 07:06:42;;;;;;;8.45;6.22;;;;;;;24.87;100.00;98251.52;2185325;81;21116;-88
2022/08/21 07:09:43;;;;;;;7.03;6.42;;;;;;;25.02;100.00;98248.41;2185652;81;20970;-89
2022/08/21 07:12:44;;;;;;;6.67;5.97;;;;;;;25.12;100.00;98243.76;2185777;81;21156;-89
2022/08/21 07:15:45;;;;;;;8.30;7.05;;;;;;;25.22;100.00;98246.86;2185617;81;21028;-89
2022/08/21 07:18:46;;;;;;;6.95;6.35;;;;;;;25.29;100.00;98246.52;2185804;80;20977;-86
2022/08/21 07:21:53;;;;;;;7.40;6.80;;;;;;;25.46;100.00;98244.16;2186006;80;21008;-86
2022/08/21 07:24:51;;;;;;;8.70;6.70;;;;;;;25.65;100.00;98244.19;2184780;81;21079;-87
2022/08/21 07:27:51;;;;;;;8.28;6.90;;;;;;;25.79;100.00;98240.54;2186602;80;20954;-89
2022/08/21 07:30:57;;;;;;;9.95;6.87;;;;;;;25.95;100.00;98242.44;2102480;85;21025;-89
2022/08/21 07:34:00;;;;;;;7.30;6.62;;;;;;;26.13;100.00;98246.19;2093419;85;20990;-91
2022/08/21 07:37:08;;;;;;;7.47;6.78;;;;;;;26.18;100.00;98243.98;2092562;85;21009;-85
2022/08/21 07:40:05;;;;;;;7.22;6.55;;;;;;;26.19;100.00;98246.38;2026372;88;21084;-86
2022/08/21 07:43:06;;;;;;;7.72;5.95;;;;;;;26.28;100.00;98240.59;2027647;88;20993;-87
2022/08/21 07:46:18;;;;;;;7.53;6.47;;;;;;;26.26;100.00;98243.33;2025712;88;21097;-89
2022/08/21 07:49:16;;;;;;;7.53;6.80;;;;;;;26.10;100.00;98245.44;2024770;88;21128;-87
2022/08/21 07:52:17;;;;;;;7.78;6.97;;;;;;;26.00;100.00;98250.42;2026213;88;21571;-84
2022/08/21 07:55:19;;;;;;;9.10;6.92;;;;;;;25.97;100.00;98245.65;2005172;88;21041;-87
2022/08/21 08:01:24;;;;;;;7.80;7.08;;;;;;;25.90;100.00;98247.09;1963257;91;21051;-84
2022/08/21 08:04:25;;;;;;;11.45;7.17;;;;;;;25.92;100.00;98243.58;1960753;91;21047;-86
2022/08/21 08:07:29;;;;;;;7.60;6.47;;;;;;;26.14;100.00;98244.30;1960398;91;21087;-86
2022/08/21 08:10:29;;;;;;;8.13;6.95;;;;;;;26.26;100.00;98242.78;1960631;91;21223;-88
2022/08/21 08:13:29;;;;;;;9.23;7.60;;;;;;;26.50;100.00;98245.90;1960544;91;21047;-87
2022/08/21 08:16:30;;;;;;;7.10;6.20;;;;;;;26.61;100.00;98250.02;1960049;91;21336;-87
2022/08/21 08:19:34;;;;;;;10.18;7.25;;;;;;;26.80;100.00;98245.38;1959766;91;21527;-85
2022/08/21 08:22:38;;;;;;;10.50;8.13;;;;;;;26.93;100.00;98241.11;1960100;91;21066;-86
2022/08/21 08:25:45;;;;;;;9.65;7.30;;;;;;;26.92;100.00;98244.89;1960371;91;21143;-86
2022/08/21 08:28:47;;;;;;;8.08;7.47;;;;;;;26.97;100.00;98245.33;1996282;89;21024;-88
2022/08/21 08:31:48;;;;;;;9.18;7.37;;;;;;;27.17;100.00;98240.41;1998691;89;21032;-90
2022/08/21 08:34:51;;;;;;;8.15;7.33;;;;;;;27.22;100.00;98236.81;1998007;89;21103;-91
2022/08/21 08:37:52;;;;;;;8.40;7.70;;;;;;;27.15;100.00;98237.75;2022059;87;21052;-90
2022/08/21 08:44:10;;;;;;;;;;;;;;;;;;;;;
2022/08/21 08:47:03;;;;;;;7.50;6.90;;;;;;;27.28;100.00;98238.86;2025414;87;21078;-87
2022/08/21 08:50:07;;;;;;;9.60;7.83;;;;;;;27.27;100.00;98234.03;2037699;87;21931;-90
2022/08/21 08:53:07;;;;;;;7.95;7.15;;;;;;;27.40;100.00;98232.41;2037617;87;21058;-88
2022/08/21 08:56:08;;;;;;;8.70;7.78;;;;;;;27.35;100.00;98229.84;2037924;87;21035;-88
2022/08/21 08:59:08;;;;;;;8.05;7.03;;;;;;;27.55;100.00;98229.41;2015831;87;21678;-87
2022/08/21 09:02:27;;;;;;;8.25;6.97;;;;;;;27.61;100.00;98231.42;2037773;87;21085;-86
2022/08/21 09:05:14;;;;;;;8.95;7.00;;;;;;;27.62;100.00;98232.48;2083456;84;21148;-89
2022/08/21 09:08:15;;;;;;;7.70;7.00;;;;;;;27.60;100.00;98229.28;2104604;85;21067;-88
2022/08/21 09:11:16;;;;;;;8.30;7.50;;;;;;;27.66;100.00;98228.67;2104808;85;21032;-86
2022/08/21 09:14:19;;;;;;;8.38;7.25;;;;;;;27.67;100.00;98225.67;2104969;85;21092;-87
2022/08/21 09:17:20;;;;;;;8.58;7.70;;;;;;;27.76;100.00;98223.06;2105129;85;21147;-84
2022/08/21 09:20:21;;;;;;;8.93;8.13;;;;;;;27.85;100.00;98226.62;2104681;85;21028;-88
2022/08/21 09:23:22;;;;;;;10.93;7.85;;;;;;;27.96;100.00;98226.63;2104455;82;21104;-87
2022/08/21 09:26:23;;;;;;;8.73;7.85;;;;;;;28.03;100.00;98224.31;2100315;85;21111;-87
2022/08/21 09:29:24;;;;;;;9.63;7.87;;;;;;;28.03;100.00;98224.31;2094460;85;21048;-89
2022/08/21 09:32:24;;;;;;;8.85;8.05;;;;;;;27.94;100.00;98217.27;2094750;85;21528;-86
2022/08/21 09:35:26;;;;;;;9.25;7.92;;;;;;;27.88;100.00;98210.41;2094585;85;21116;-90
2022/08/21 09:38:26;;;;;;;8.50;7.80;;;;;;;27.88;100.00;98212.55;2094591;85;21044;-87
2022/08/21 09:41:27;;;;;;;10.35;8.45;;;;;;;27.90;100.00;98211.72;2166737;81;20982;-88
2022/08/21 09:44:28;;;;;;;15.10;8.20;;;;;;;27.91;100.00;98207.92;2181546;82;21037;-85
2022/08/21 09:47:30;;;;;;;9.30;8.03;;;;;;;27.84;100.00;98204.86;2181739;82;21055;-89
2022/08/21 09:50:30;;;;;;;12.65;7.67;;;;;;;27.69;100.00;98198.47;2182350;82;21110;-89
2022/08/21 09:53:34;;;;;;;8.55;7.78;;;;;;;27.65;100.00;98196.92;2182029;81;21002;-88
2022/08/21 09:59:56;;;;;;;8.75;7.42;;;;;;;27.79;100.00;98187.48;2182542;82;21043;-89
2022/08/21 10:02:57;;;;;;;9.03;8.13;;;;;;;27.84;100.00;98191.41;2182465;81;20986;-88
2022/08/21 10:05:57;;;;;;;8.58;7.75;;;;;;;27.69;100.00;98185.02;2182309;82;21010;-90
2022/08/21 10:08:58;;;;;;;11.12;8.98;;;;;;;27.57;100.00;98181.50;2182593;82;21030;-90
2022/08/21 10:11:59;;;;;;;9.18;8.30;;;;;;;27.41;100.00;98182.38;2182530;82;20998;-89
2022/08/21 10:15:00;;;;;;;9.33;8.38;;;;;;;27.26;100.00;98181.94;2182301;82;20982;-89
2022/08/21 10:18:03;;;;;;;10.23;8.73;;;;;;;27.17;100.00;98183.19;2182176;82;21010;-88
2022/08/21 10:21:05;;;;;;;10.10;9.10;;;;;;;27.16;100.00;98181.59;2182682;82;21078;-90
2022/08/21 10:24:06;;;;;;;13.15;8.73;;;;;;;27.28;100.00;98175.70;2182566;82;21021;-88
2022/08/21 10:27:06;;;;;;;9.33;8.63;;;;;;;27.41;100.00;98180.24;2182436;81;21025;-89
2022/08/21 10:30:07;;;;;;;9.35;8.45;;;;;;;27.55;100.00;98188.29;2182331;81;20970;-86
2022/08/21 10:33:08;;;;;;;9.13;8.25;;;;;;;27.46;100.00;98187.66;2182040;81;21002;-86
2022/08/21 10:36:09;;;;;;;10.25;9.08;;;;;;;27.45;100.00;98181.25;2182289;82;21017;-86
2022/08/21 10:39:10;;;;;;;11.00;9.25;;;;;;;27.56;100.00;98184.50;2182100;82;21046;-86
2022/08/21 10:42:11;;;;;;;10.03;9.13;;;;;;;27.68;100.00;98176.16;2182215;81;21095;-88
2022/08/21 10:45:12;;;;;;;10.05;8.85;;;;;;;27.74;100.00;98178.20;2182012;81;21006;-88
2022/08/21 10:48:13;;;;;;;10.10;9.10;;;;;;;27.81;100.00;98188.55;2181760;82;21053;-88
2022/08/21 10:51:13;;;;;;;10.15;9.15;;;;;;;27.83;100.00;98177.72;2181888;81;20931;-88
2022/08/21 10:54:14;;;;;;;10.20;9.00;;;;;;;27.93;100.00;98177.47;2182013;82;20994;-86
2022/08/21 10:57:15;;;;;;;8.73;8.03;;;;;;;28.08;100.00;98181.70;2181942;82;21568;-87
2022/08/21 11:00:16;;;;;;;10.45;9.13;;;;;;;28.10;100.00;98185.43;2181900;81;21018;-88
2022/08/21 11:03:16;;;;;;;10.82;9.73;;;;;;;28.05;100.00;98174.22;2182273;81;21049;-87
2022/08/21 11:09:23;;;;;;;12.00;10.40;;;;;;;28.31;100.00;98181.15;2074276;85;21024;-87
2022/08/21 11:12:24;;;;;;;10.82;9.68;;;;;;;28.42;100.00;98173.05;2097514;85;21044;-87
2022/08/21 11:15:30;;;;;;;10.28;8.75;;;;;;;28.59;100.00;98175.03;2097134;85;21128;-87
2022/08/21 11:18:30;;;;;;;8.93;8.25;;;;;;;28.72;100.00;98178.75;2083200;83;21037;-88
2022/08/21 11:21:31;;;;;;;11.45;8.93;;;;;;;28.82;100.00;98183.86;2071777;85;21131;-86
2022/08/21 11:24:32;;;;;;;10.63;9.53;;;;;;;28.83;100.00;98188.13;2065677;85;21564;-88
2022/08/21 11:27:32;;;;;;;11.60;9.90;;;;;;;28.84;100.00;98184.33;2054979;85;21057;-88
2022/08/21 11:30:33;;;;;;;11.40;10.32;;;;;;;28.80;100.00;98181.48;2088617;85;21088;-87
2022/08/21 11:33:34;;;;;;;10.85;9.88;;;;;;;28.74;100.00;98184.06;2088722;85;21085;-88
2022/08/21 11:36:35;;;;;;;11.25;10.15;;;;;;;28.69;100.00;98186.08;2088646;85;21110;-87
2022/08/21 11:39:36;;;;;;;10.85;9.55;;;;;;;28.69;100.00;98181.48;2088629;85;21080;-87
2022/08/21 11:42:37;;;;;;;11.80;10.82;;;;;;;28.68;100.00;98177.21;2088722;85;21572;-87
2022/08/21 11:45:37;;;;;;;10.38;9.43;;;;;;;28.78;100.00;98182.32;2058033;85;21072;-87
2022/08/21 11:48:38;;;;;;;13.55;10.78;;;;;;;28.79;100.00;98180.42;2049445;86;21068;-87
2022/08/21 11:51:39;;;;;;;10.90;9.75;;;;;;;28.88;100.00;98176.65;2050154;86;21041;-87
2022/08/21 11:54:43;;;;;;;11.73;10.63;;;;;;;28.86;100.00;98185.60;2080633;85;20998;-86
2022/08/21 11:57:43;;;;;;;18.07;11.73;;;;;;;28.76;100.00;98189.13;2085770;84;21628;-86
2022/08/21 12:00:44;;;;;;;11.60;10.40;;;;;;;28.67;100.00;98175.62;2059085;85;21103;-87
2022/08/21 12:03:45;;;;;;;12.65;11.40;;;;;;;28.58;100.00;98176.94;2070111;85;21053;-87
2022/08/21 12:06:46;;;;;;;12.03;10.70;;;;;;;28.58;100.00;98176.14;2158251;82;21453;-88
2022/08/21 12:12:51;;;;;;;14.90;12.68;;;;;;;28.54;100.00;98181.92;2090500;84;21069;-88
2022/08/21 12:15:51;;;;;;;13.70;12.40;;;;;;;28.52;100.00;98184.89;2085223;85;21047;-88
2022/08/21 12:18:52;;;;;;;15.20;13.62;;;;;;;28.50;100.00;98174.20;2085350;85;21058;-88
2022/08/21 12:21:55;;;;;;;16.50;14.13;;;;;;;28.44;100.00;98175.42;2085433;85;21066;-87
2022/08/21 12:24:58;;;;;;;13.90;12.55;;;;;;;28.47;100.00;98177.52;2080742;85;21164;-87
2022/08/21 12:27:59;;;;;;;16.67;13.48;;;;;;;28.50;100.00;98174.20;2056411;86;21014;-86
2022/08/21 12:31:00;;;;;;;18.60;13.75;;;;;;;28.44;100.00;98172.20;2050921;87;20970;-88
2022/08/21 12:34:00;;;;;;;15.55;14.10;;;;;;;28.37;100.00;98179.92;2050760;87;20994;-88
2022/08/21 12:37:01;;;;;;;17.12;14.05;;;;;;;28.40;100.00;98175.81;2055302;85;21038;-88
2022/08/21 12:40:02;;;;;;;14.28;12.95;;;;;;;28.38;100.00;98177.47;2085455;85;21121;-88
2022/08/21 12:43:03;;;;;;;15.35;13.72;;;;;;;28.37;100.00;98167.81;2085473;85;21513;-88
2022/08/21 12:46:04;;;;;;;14.47;12.98;;;;;;;28.37;100.00;98161.08;2084912;85;21490;-88
2022/08/21 12:49:05;;;;;;;14.65;13.25;;;;;;;28.37;100.00;98165.13;2085483;85;21070;-89
2022/08/21 12:52:06;;;;;;;14.73;13.20;;;;;;;28.37;100.00;98156.25;2053991;85;20943;-88
2022/08/21 12:55:06;;;;;;;15.83;13.93;;;;;;;28.24;100.00;98153.84;2050964;87;20975;-87
2022/08/21 12:58:07;;;;;;;22.82;15.05;;;;;;;28.17;100.00;98148.91;2078244;85;21506;-88
2022/08/21 13:01:08;;;;;;;18.12;15.70;;;;;;;28.19;100.00;98141.87;2084765;85;21066;-87
2022/08/21 13:04:09;;;;;;;26.85;18.90;;;;;;;28.21;100.00;98152.56;2085389;85;21514;-87
2022/08/21 13:07:12;;;;;;;27.45;22.70;;;;;;;28.22;100.00;98156.05;2085404;85;20991;-89
2022/08/21 13:10:12;;;;;;;16.30;14.60;;;;;;;28.26;100.00;98153.80;2131440;81;21034;-91
2022/08/21 13:13:16;;;;;;;18.02;16.10;;;;;;;28.30;100.00;98143.23;2146295;83;21025;-86
2022/08/21 13:16:17;;;;;;;15.18;13.43;;;;;;;28.26;100.00;98155.14;2157918;81;21120;-87
2022/08/21 13:19:18;;;;;;;15.43;13.93;;;;;;;28.18;100.00;98151.84;2176062;81;21077;-87
2022/08/21 13:22:28;;;;;;;18.05;14.40;;;;;;;28.14;100.00;98156.23;2185217;81;21479;-88
2022/08/21 13:25:23;;;;;;;15.65;13.58;;;;;;;28.00;100.00;98154.19;2182116;81;21027;-85
2022/08/21 13:28:24;;;;;;;14.25;12.75;;;;;;;27.95;100.00;98152.95;2185499;81;21063;-86
2022/08/21 13:31:25;;;;;;;14.53;12.88;;;;;;;27.93;100.00;98147.09;2185075;81;21020;-86
2022/08/21 13:34:26;;;;;;;14.60;13.32;;;;;;;27.91;100.00;98150.64;2185190;81;20969;-88
2022/08/21 13:37:28;;;;;;;14.87;13.32;;;;;;;27.82;100.00;98149.79;2185504;81;21032;-86
2022/08/21 13:40:29;;;;;;;15.40;13.48;;;;;;;27.80;100.00;98156.00;2185180;81;21052;-87
2022/08/21 13:43:30;;;;;;;15.90;14.23;;;;;;;27.75;100.00;98159.62;2185149;80;21051;-84
2022/08/21 13:46:31;;;;;;;14.53;13.22;;;;;;;27.68;100.00;98157.89;2185232;81;21543;-87
2022/08/21 13:49:32;;;;;;;15.50;13.90;;;;;;;27.61;100.00;98156.14;2153451;81;21415;-89
2022/08/21 13:52:33;;;;;;;15.35;13.85;;;;;;;27.54;100.00;98158.47;2185316;81;20985;-88
2022/08/21 13:55:34;;;;;;;14.55;13.25;;;;;;;27.42;100.00;98154.95;2185422;81;20970;-87
2022/08/21 13:58:35;;;;;;;15.18;12.93;;;;;;;27.27;100.00;98153.96;2185251;81;21035;-87
2022/08/21 14:01:36;;;;;;;14.35;12.98;;;;;;;27.11;100.00;98153.48;2185176;81;20978;-87
2022/08/21 14:04:37;;;;;;;13.28;11.97;;;;;;;27.01;100.00;98151.77;2185007;81;21513;-87
2022/08/21 14:07:38;;;;;;;14.55;12.78;;;;;;;26.93;100.00;98153.27;2185218;81;21498;-87